Time;durP1;ratioP1;P1;durP2;ratioP2;P2;SDS_P1;SDS_P2;PMS_P1;PMS_P2;Temp;Humidity;BMP_temperature;BMP_pressure;BME280_temperature;BME280_humidity;BME280_pressure;Samples;Min_cycle;Max_cycle;Signal;HPM_P1;HPM_P2
2023/07/28 00:01:00;;;;;;;14.23;11.27;;;;;;;;;;5051662;28;20060;-70
2023/07/28 00:03:25;;;;;;;22.15;11.27;;;;;;;;;;5052728;28;20017;-69
2023/07/28 00:05:50;;;;;;;15.27;10.82;;;;;;;;;;5063710;28;20021;-67
2023/07/28 00:08:16;;;;;;;13.32;11.88;;;;;;;;;;5055643;28;20025;-69
2023/07/28 00:10:42;;;;;;;14.68;11.80;;;;;;;;;;5052799;28;20025;-70
2023/07/28 00:13:07;;;;;;;20.60;12.05;;;;;;;;;;5049792;28;20029;-69
2023/07/28 00:15:32;;;;;;;10.45;8.75;;;;;;;;;;5062609;28;20476;-69
2023/07/28 00:17:59;;;;;;;15.43;11.90;;;;;;;;;;5071139;28;20056;-69
2023/07/28 00:20:24;;;;;;;14.85;11.32;;;;;;;;;;5057668;28;20021;-69
2023/07/28 00:22:49;;;;;;;13.77;10.57;;;;;;;;;;5050722;28;20041;-69
2023/07/28 00:25:15;;;;;;;12.48;9.52;;;;;;;;;;5059830;28;20463;-70
2023/07/28 00:27:40;;;;;;;14.23;9.95;;;;;;;;;;5071027;28;20033;-69
2023/07/28 00:30:05;;;;;;;12.98;10.98;;;;;;;;;;5071821;28;20044;-69
2023/07/28 00:32:30;;;;;;;13.82;11.30;;;;;;;;;;5058962;28;20554;-69
2023/07/28 00:34:55;;;;;;;12.00;10.38;;;;;;;;;;5051979;28;20060;-68
2023/07/28 00:37:21;;;;;;;13.40;11.02;;;;;;;;;;5050236;28;20067;-69
2023/07/28 00:39:46;;;;;;;14.35;11.68;;;;;;;;;;5052289;28;20017;-68
2023/07/28 00:42:11;;;;;;;14.50;11.13;;;;;;;;;;5050448;28;20033;-68
2023/07/28 00:44:36;;;;;;;12.18;10.30;;;;;;;;;;5053376;28;20537;-68
2023/07/28 00:47:01;;;;;;;11.68;10.32;;;;;;;;;;5070578;28;20039;-69
2023/07/28 00:49:26;;;;;;;11.60;9.32;;;;;;;;;;5059869;28;20067;-68
2023/07/28 00:51:52;;;;;;;14.82;10.20;;;;;;;;;;5050293;28;20044;-68
2023/07/28 00:54:17;;;;;;;14.02;10.60;;;;;;;;;;5051515;28;20147;-68
2023/07/28 00:56:42;;;;;;;17.63;11.05;;;;;;;;;;5068979;28;20066;-68
2023/07/28 00:59:08;;;;;;;13.67;11.07;;;;;;;;;;5071294;28;20020;-68
2023/07/28 01:01:33;;;;;;;15.10;12.70;;;;;;;;;;5059435;28;20029;-68
2023/07/28 01:03:58;;;;;;;18.38;13.63;;;;;;;;;;5051774;28;20033;-69
2023/07/28 01:06:58;;;;;;;17.02;13.68;;;;;;;;;;5050677;28;20044;-69
2023/07/28 01:09:29;;;;;;;17.02;13.98;;;;;;;;;;5048908;28;20040;-69
2023/07/28 01:11:55;;;;;;;16.27;13.75;;;;;;;;;;5049591;28;20141;-69
2023/07/28 01:14:20;;;;;;;14.63;11.45;;;;;;;;;;5050866;28;20056;-69
2023/07/28 01:16:45;;;;;;;16.20;13.30;;;;;;;;;;5068656;28;20039;-69
2023/07/28 01:19:11;;;;;;;17.00;12.77;;;;;;;;;;5071283;28;20491;-69
2023/07/28 01:21:37;;;;;;;14.32;11.85;;;;;;;;;;5069611;28;20116;-69
2023/07/28 01:24:15;;;;;;;18.33;15.23;;;;;;;;;;5071255;28;20174;-69
2023/07/28 01:26:40;;;;;;;;;;;;;;;;;;5051983;28;20037;-69
2023/07/28 01:29:06;;;;;;;17.23;13.77;;;;;;;;;;5050828;28;20026;-69
2023/07/28 01:31:31;;;;;;;16.25;13.02;;;;;;;;;;5050793;28;20580;-69
2023/07/28 01:33:56;;;;;;;14.83;12.30;;;;;;;;;;5050923;28;20031;-69
2023/07/28 01:36:21;;;;;;;20.30;13.10;;;;;;;;;;5064501;28;20466;-68
2023/07/28 01:38:47;;;;;;;14.40;12.90;;;;;;;;;;5071351;28;20036;-69
2023/07/28 01:41:12;;;;;;;23.65;15.25;;;;;;;;;;5068601;28;20510;-70
2023/07/28 01:43:37;;;;;;;20.88;13.13;;;;;;;;;;5067774;28;20024;-70
2023/07/28 01:46:03;;;;;;;18.08;13.13;;;;;;;;;;5056306;28;20646;-70
2023/07/28 01:48:28;;;;;;;18.80;14.37;;;;;;;;;;5050946;28;20415;-70
2023/07/28 01:50:53;;;;;;;19.80;13.75;;;;;;;;;;5049268;28;20036;-70
2023/07/28 01:53:18;;;;;;;20.63;14.57;;;;;;;;;;5050728;28;20021;-71
2023/07/28 01:55:43;;;;;;;16.77;13.45;;;;;;;;;;5060447;28;20356;-71
2023/07/28 01:58:09;;;;;;;15.13;12.55;;;;;;;;;;5053520;28;20036;-70
2023/07/28 02:00:34;;;;;;;20.63;12.82;;;;;;;;;;5051136;28;20032;-69
2023/07/28 02:03:01;;;;;;;19.40;13.10;;;;;;;;;;5066957;28;20040;-70
2023/07/28 02:05:27;;;;;;;17.08;11.70;;;;;;;;;;5061763;28;20017;-69
2023/07/28 02:07:52;;;;;;;14.88;11.82;;;;;;;;;;5065957;28;20399;-70
2023/07/28 02:10:17;;;;;;;16.45;13.75;;;;;;;;;;5070757;28;20021;-70
2023/07/28 02:12:42;;;;;;;16.07;13.90;;;;;;;;;;5068637;28;20032;-70
2023/07/28 02:15:08;;;;;;;15.17;12.53;;;;;;;;;;5069902;28;21008;-70
2023/07/28 02:17:33;;;;;;;15.65;12.18;;;;;;;;;;5061813;28;21013;-71
2023/07/28 02:19:58;;;;;;;17.10;13.90;;;;;;;;;;5050367;28;20531;-69
2023/07/28 02:22:23;;;;;;;17.80;12.77;;;;;;;;;;5061696;28;20037;-70
2023/07/28 02:24:48;;;;;;;18.23;13.37;;;;;;;;;;5041501;28;20020;-69
2023/07/28 02:27:13;;;;;;;20.83;12.93;;;;;;;;;;5059762;28;20044;-70
2023/07/28 02:29:39;;;;;;;20.57;13.97;;;;;;;;;;5070308;28;20083;-70
2023/07/28 02:32:04;;;;;;;18.10;13.90;;;;;;;;;;5068775;28;20048;-69
2023/07/28 02:34:29;;;;;;;25.02;14.40;;;;;;;;;;5070234;28;20445;-69
2023/07/28 02:36:54;;;;;;;17.23;14.02;;;;;;;;;;5070189;28;20060;-70
2023/07/28 02:39:20;;;;;;;25.97;15.97;;;;;;;;;;5074206;28;20016;-70
2023/07/28 02:41:45;;;;;;;19.95;13.50;;;;;;;;;;5071957;28;20145;-69
2023/07/28 02:44:10;;;;;;;23.23;14.77;;;;;;;;;;5073965;28;20479;-69
2023/07/28 02:46:36;;;;;;;25.55;15.68;;;;;;;;;;5056378;28;20613;-70
2023/07/28 02:49:03;;;;;;;30.25;15.05;;;;;;;;;;5053933;28;20146;-70
2023/07/28 02:51:28;;;;;;;20.27;14.05;;;;;;;;;;5052895;28;20044;-70
2023/07/28 02:53:54;;;;;;;26.23;15.67;;;;;;;;;;5054036;28;20025;-70
2023/07/28 02:56:20;;;;;;;25.03;15.63;;;;;;;;;;5065297;28;20454;-70
2023/07/28 02:58:45;;;;;;;29.55;16.38;;;;;;;;;;5074232;28;20029;-70
2023/07/28 03:01:10;;;;;;;26.95;14.45;;;;;;;;;;5072540;28;20348;-70
2023/07/28 03:03:35;;;;;;;24.60;15.80;;;;;;;;;;5066138;28;20103;-70
2023/07/28 03:06:01;;;;;;;23.20;15.47;;;;;;;;;;5063147;28;20025;-70
2023/07/28 03:08:26;;;;;;;28.20;17.60;;;;;;;;;;5073645;28;20111;-70
2023/07/28 03:10:55;;;;;;;25.92;15.02;;;;;;;;;;5073308;28;20020;-70
2023/07/28 03:13:21;;;;;;;28.98;16.42;;;;;;;;;;5071887;28;20416;-69
2023/07/28 03:15:46;;;;;;;26.90;15.77;;;;;;;;;;5073505;28;20027;-70
2023/07/28 03:18:11;;;;;;;30.95;17.88;;;;;;;;;;5071785;28;21003;-70
2023/07/28 03:20:36;;;;;;;25.27;15.07;;;;;;;;;;5071895;28;20468;-70
2023/07/28 03:23:01;;;;;;;22.23;14.37;;;;;;;;;;5064711;28;20025;-70
2023/07/28 03:25:26;;;;;;;24.70;15.52;;;;;;;;;;5047488;28;20436;-70
2023/07/28 03:27:52;;;;;;;23.67;14.87;;;;;;;;;;5048605;28;20037;-70
2023/07/28 03:30:17;;;;;;;28.70;16.27;;;;;;;;;;5053678;28;20430;-70
2023/07/28 03:32:43;;;;;;;25.67;15.70;;;;;;;;;;5051761;28;20029;-70
2023/07/28 03:35:08;;;;;;;30.90;16.43;;;;;;;;;;5069434;28;20052;-70
2023/07/28 03:37:34;;;;;;;25.55;14.77;;;;;;;;;;5071662;28;20111;-70
2023/07/28 03:39:59;;;;;;;32.72;18.42;;;;;;;;;;5073314;28;20425;-70
2023/07/28 03:42:24;;;;;;;31.23;17.53;;;;;;;;;;5071396;28;20036;-70
2023/07/28 03:44:50;;;;;;;29.37;18.87;;;;;;;;;;5073061;28;20482;-70
2023/07/28 03:47:15;;;;;;;32.90;18.17;;;;;;;;;;5071415;28;20396;-70
2023/07/28 03:49:40;;;;;;;30.30;16.33;;;;;;;;;;5071645;28;20098;-70
2023/07/28 03:52:05;;;;;;;39.17;18.40;;;;;;;;;;5071404;28;20508;-69
2023/07/28 03:54:31;;;;;;;32.10;18.30;;;;;;;;;;5072839;28;20458;-69
2023/07/28 03:56:56;;;;;;;33.97;17.70;;;;;;;;;;5071043;28;20142;-69
2023/07/28 03:59:21;;;;;;;33.43;18.30;;;;;;;;;;5072824;28;20103;-69
2023/07/28 04:01:47;;;;;;;35.00;19.83;;;;;;;;;;5071514;28;20032;-69
2023/07/28 04:04:12;;;;;;;30.52;17.35;;;;;;;;;;5058169;28;20091;-70
2023/07/28 04:06:44;;;;;;;32.70;18.45;;;;;;;;;;5065324;28;20449;-69
2023/07/28 04:09:11;;;;;;;36.55;20.27;;;;;;;;;;5072598;28;20111;-69
2023/07/28 04:11:37;;;;;;;36.30;18.50;;;;;;;;;;5062522;28;20455;-68
2023/07/28 04:14:02;;;;;;;38.53;20.55;;;;;;;;;;5050957;28;20032;-70
2023/07/28 04:16:27;;;;;;;37.03;20.50;;;;;;;;;;5051387;28;20048;-70
2023/07/28 04:18:52;;;;;;;49.17;23.70;;;;;;;;;;5051491;28;20100;-70
2023/07/28 04:21:18;;;;;;;37.77;19.30;;;;;;;;;;5053845;28;20028;-70
2023/07/28 04:23:43;;;;;;;39.87;20.40;;;;;;;;;;5059456;28;20056;-70
2023/07/28 04:26:08;;;;;;;37.38;20.67;;;;;;;;;;5052964;28;20455;-71
2023/07/28 04:28:33;;;;;;;39.67;20.60;;;;;;;;;;5072060;28;20020;-70
2023/07/28 04:30:58;;;;;;;40.40;20.48;;;;;;;;;;5070068;28;20479;-70
2023/07/28 04:33:24;;;;;;;42.07;21.17;;;;;;;;;;5071844;28;20100;-70
2023/07/28 04:35:49;;;;;;;38.60;20.87;;;;;;;;;;5071256;28;20088;-71
2023/07/28 04:38:14;;;;;;;42.72;20.30;;;;;;;;;;5069983;28;20037;-71
2023/07/28 04:40:39;;;;;;;50.60;23.43;;;;;;;;;;5071775;28;20028;-70
2023/07/28 04:43:04;;;;;;;42.15;21.05;;;;;;;;;;5070112;28;20462;-70
2023/07/28 04:45:29;;;;;;;39.17;17.87;;;;;;;;;;5071504;28;20563;-70
2023/07/28 04:47:54;;;;;;;42.95;20.77;;;;;;;;;;5070306;28;20090;-70
2023/07/28 04:50:20;;;;;;;41.58;22.50;;;;;;;;;;5071730;28;20031;-71
2023/07/28 04:52:45;;;;;;;42.33;20.55;;;;;;;;;;5070388;28;20394;-71
2023/07/28 04:55:10;;;;;;;47.95;23.88;;;;;;;;;;5070643;28;20028;-70
2023/07/28 04:57:35;;;;;;;46.65;24.25;;;;;;;;;;5069508;28;20029;-70
2023/07/28 05:00:00;;;;;;;44.10;21.57;;;;;;;;;;5070902;28;20017;-70
2023/07/28 05:02:25;;;;;;;43.00;23.17;;;;;;;;;;5069613;28;20443;-70
2023/07/28 05:04:51;;;;;;;41.58;22.20;;;;;;;;;;5071312;28;20442;-70
2023/07/28 05:07:16;;;;;;;50.23;27.37;;;;;;;;;;5061301;28;20032;-70
2023/07/28 05:09:41;;;;;;;42.43;21.27;;;;;;;;;;5071332;28;20505;-71
2023/07/28 05:12:06;;;;;;;45.30;21.33;;;;;;;;;;5059811;28;20043;-70
2023/07/28 05:14:33;;;;;;;36.17;20.27;;;;;;;;;;5053758;28;20029;-69
2023/07/28 05:16:58;;;;;;;45.42;25.77;;;;;;;;;;5058510;28;20373;-69
2023/07/28 05:19:23;;;;;;;41.33;21.67;;;;;;;;;;5071035;28;20021;-69
2023/07/28 05:21:48;;;;;;;49.22;23.80;;;;;;;;;;5070043;28;20115;-69
2023/07/28 05:24:13;;;;;;;39.50;21.42;;;;;;;;;;5070544;28;20024;-69
2023/07/28 05:26:39;;;;;;;44.05;22.90;;;;;;;;;;5069212;28;20495;-68
2023/07/28 05:29:04;;;;;;;42.58;21.83;;;;;;;;;;5070976;28;20070;-69
2023/07/28 05:31:29;;;;;;;45.13;22.63;;;;;;;;;;5069600;28;20052;-69
2023/07/28 05:33:54;;;;;;;43.87;21.57;;;;;;;;;;5055867;28;20025;-70
2023/07/28 05:36:19;;;;;;;43.13;23.50;;;;;;;;;;5036474;28;20041;-70
2023/07/28 05:38:44;;;;;;;43.70;24.33;;;;;;;;;;5049489;28;20468;-70
2023/07/28 05:41:10;;;;;;;43.72;23.45;;;;;;;;;;5049298;28;20025;-70
2023/07/28 05:43:35;;;;;;;42.10;22.23;;;;;;;;;;5053001;28;20021;-70
2023/07/28 05:46:00;;;;;;;42.50;21.77;;;;;;;;;;5068170;28;20077;-69
2023/07/28 05:48:26;;;;;;;50.75;23.52;;;;;;;;;;5070000;28;20023;-69
2023/07/28 05:50:53;;;;;;;40.50;22.33;;;;;;;;;;5069562;28;20016;-70
2023/07/28 05:53:18;;;;;;;40.83;23.33;;;;;;;;;;5070071;28;20104;-69
2023/07/28 05:55:43;;;;;;;41.03;20.65;;;;;;;;;;5070402;28;20108;-70
2023/07/28 05:58:08;;;;;;;52.35;25.05;;;;;;;;;;5069172;28;20033;-70
2023/07/28 06:00:33;;;;;;;41.92;21.92;;;;;;;;;;5070833;28;20020;-70
2023/07/28 06:02:59;;;;;;;43.97;22.63;;;;;;;;;;5068490;28;20045;-70
2023/07/28 06:05:24;;;;;;;43.17;22.25;;;;;;;;;;5070972;28;20092;-70
2023/07/28 06:07:49;;;;;;;42.90;22.23;;;;;;;;;;5069130;28;20040;-70
2023/07/28 06:10:14;;;;;;;46.93;21.30;;;;;;;;;;5070096;28;20054;-70
2023/07/28 06:12:39;;;;;;;41.33;21.30;;;;;;;;;;5068380;28;20426;-70
2023/07/28 06:15:05;;;;;;;36.78;19.95;;;;;;;;;;5070413;28;20104;-70
2023/07/28 06:17:30;;;;;;;37.25;20.10;;;;;;;;;;5068375;28;20114;-69
2023/07/28 06:19:55;;;;;;;38.92;21.20;;;;;;;;;;5070614;28;20013;-69
2023/07/28 06:22:20;;;;;;;34.73;19.23;;;;;;;;;;5067581;28;20033;-69
2023/07/28 06:24:46;;;;;;;39.73;21.37;;;;;;;;;;5068861;28;20025;-67
2023/07/28 06:27:11;;;;;;;40.80;18.53;;;;;;;;;;5068927;28;20032;-69
2023/07/28 06:29:36;;;;;;;38.92;20.83;;;;;;;;;;5070711;28;20055;-69
2023/07/28 06:32:01;;;;;;;33.33;20.23;;;;;;;;;;5068182;28;20028;-69
2023/07/28 06:34:26;;;;;;;40.15;21.95;;;;;;;;;;5070162;28;20119;-69
2023/07/28 06:36:52;;;;;;;39.87;22.20;;;;;;;;;;5068327;28;20479;-68
2023/07/28 06:39:17;;;;;;;39.72;21.55;;;;;;;;;;5067863;28;20491;-69
2023/07/28 06:41:42;;;;;;;38.37;20.77;;;;;;;;;;5068881;28;20038;-69
2023/07/28 06:44:08;;;;;;;34.93;19.87;;;;;;;;;;5070228;28;20427;-68
2023/07/28 06:46:33;;;;;;;31.60;18.25;;;;;;;;;;5068332;28;20123;-69
2023/07/28 06:48:59;;;;;;;43.95;22.15;;;;;;;;;;5070289;28;20085;-68
2023/07/28 06:51:24;;;;;;;36.00;18.30;;;;;;;;;;5068713;28;20036;-68
2023/07/28 06:53:50;;;;;;;33.07;19.37;;;;;;;;;;5069524;28;20029;-69
2023/07/28 06:56:15;;;;;;;33.38;19.35;;;;;;;;;;5068278;28;20040;-69
2023/07/28 06:58:40;;;;;;;44.83;20.43;;;;;;;;;;5070089;28;20016;-69
2023/07/28 07:01:06;;;;;;;35.38;19.85;;;;;;;;;;5066867;28;20047;-69
2023/07/28 07:03:31;;;;;;;35.13;17.55;;;;;;;;;;5070288;28;20364;-69
2023/07/28 07:05:56;;;;;;;37.17;20.70;;;;;;;;;;5068720;28;20555;-68
2023/07/28 07:08:21;;;;;;;41.85;19.83;;;;;;;;;;5069518;28;20075;-69
2023/07/28 07:10:47;;;;;;;43.10;21.77;;;;;;;;;;5069995;28;20028;-68
2023/07/28 07:13:12;;;;;;;41.85;19.35;;;;;;;;;;5067842;28;20454;-68
2023/07/28 07:15:38;;;;;;;29.67;16.67;;;;;;;;;;5069216;28;20013;-68
2023/07/28 07:18:03;;;;;;;35.90;19.30;;;;;;;;;;5067846;28;20510;-70
2023/07/28 07:20:28;;;;;;;39.93;18.47;;;;;;;;;;5064614;28;20044;-68
2023/07/28 07:22:53;;;;;;;37.72;18.48;;;;;;;;;;5048404;28;20037;-68
2023/07/28 07:25:18;;;;;;;35.25;18.63;;;;;;;;;;5048518;28;20017;-69
2023/07/28 07:27:44;;;;;;;37.40;20.25;;;;;;;;;;5063887;28;20457;-68
2023/07/28 07:30:09;;;;;;;42.25;19.55;;;;;;;;;;5072568;28;20036;-69
2023/07/28 07:32:34;;;;;;;38.20;19.27;;;;;;;;;;5071650;28;20059;-69
2023/07/28 07:34:59;;;;;;;42.53;22.20;;;;;;;;;;5072935;28;20483;-68
2023/07/28 07:37:25;;;;;;;44.92;21.83;;;;;;;;;;5069473;28;20433;-68
2023/07/28 07:39:50;;;;;;;51.40;22.90;;;;;;;;;;5073254;28;20020;-69
2023/07/28 07:42:15;;;;;;;47.40;21.73;;;;;;;;;;5071458;28;20544;-68
2023/07/28 07:44:40;;;;;;;44.72;23.17;;;;;;;;;;5071208;28;20027;-68
2023/07/28 07:47:14;;;;;;;44.67;22.02;;;;;;;;;;5068130;28;20055;-68
2023/07/28 07:49:39;;;;;;;61.00;26.50;;;;;;;;;;5055149;28;20104;-68
2023/07/28 07:52:05;;;;;;;53.58;25.50;;;;;;;;;;5068088;28;20124;-68
2023/07/28 07:54:30;;;;;;;54.42;25.23;;;;;;;;;;5070774;28;20475;-68
2023/07/28 07:56:55;;;;;;;51.30;26.73;;;;;;;;;;5065760;28;20036;-68
2023/07/28 07:59:21;;;;;;;50.63;24.10;;;;;;;;;;5051951;28;20084;-68
2023/07/28 08:01:46;;;;;;;44.33;23.27;;;;;;;;;;5058872;28;20036;-68
2023/07/28 08:04:11;;;;;;;43.47;22.33;;;;;;;;;;5072615;28;20383;-68
2023/07/28 08:06:36;;;;;;;48.92;22.38;;;;;;;;;;5069926;28;20044;-68
2023/07/28 08:09:01;;;;;;;45.33;22.42;;;;;;;;;;5072141;28;20039;-68
2023/07/28 08:11:27;;;;;;;50.30;27.33;;;;;;;;;;5071059;28;20122;-68
2023/07/28 08:13:52;;;;;;;45.88;22.15;;;;;;;;;;5071173;28;20483;-68
2023/07/28 08:16:18;;;;;;;39.22;20.85;;;;;;;;;;5069873;28;20033;-68
2023/07/28 08:18:43;;;;;;;37.45;22.10;;;;;;;;;;5064677;28;20052;-68
2023/07/28 08:21:08;;;;;;;30.33;19.63;;;;;;;;;;5055532;28;20463;-68
2023/07/28 08:23:33;;;;;;;31.30;19.73;;;;;;;;;;5071903;28;20033;-68
2023/07/28 08:25:59;;;;;;;32.00;19.10;;;;;;;;;;5070726;28;20431;-67
2023/07/28 08:28:24;;;;;;;29.07;19.37;;;;;;;;;;5070414;28;20489;-68
2023/07/28 08:30:55;;;;;;;36.73;20.83;;;;;;;;;;5070226;28;20031;-66
2023/07/28 08:33:20;;;;;;;35.38;20.05;;;;;;;;;;5071748;28;20051;-69
2023/07/28 08:35:45;;;;;;;27.75;20.08;;;;;;;;;;5071271;28;20495;-68
2023/07/28 08:38:12;;;;;;;29.60;18.45;;;;;;;;;;5070152;28;20028;-68
2023/07/28 08:40:37;;;;;;;37.92;18.15;;;;;;;;;;5071856;28;20016;-69
2023/07/28 08:43:02;;;;;;;36.03;18.27;;;;;;;;;;5069645;28;20120;-69
2023/07/28 08:45:28;;;;;;;29.37;18.77;;;;;;;;;;5070937;28;20047;-68
2023/07/28 08:47:53;;;;;;;30.15;18.52;;;;;;;;;;5052598;28;20911;-69
2023/07/28 08:50:18;;;;;;;29.73;18.17;;;;;;;;;;5031788;28;20025;-69
2023/07/28 08:52:44;;;;;;;31.55;17.42;;;;;;;;;;5068765;28;20532;-68
2023/07/28 08:55:09;;;;;;;28.75;19.55;;;;;;;;;;5052018;28;20025;-69
2023/07/28 08:57:34;;;;;;;32.50;18.87;;;;;;;;;;5064753;28;20509;-68
2023/07/28 09:00:06;;;;;;;22.27;16.23;;;;;;;;;;5070928;28;20020;-69
2023/07/28 09:02:32;;;;;;;25.90;17.33;;;;;;;;;;5070050;28;20039;-68
2023/07/28 09:04:57;;;;;;;24.80;17.92;;;;;;;;;;5071297;28;20025;-68
2023/07/28 09:07:22;;;;;;;26.35;17.70;;;;;;;;;;5068869;28;20090;-68
2023/07/28 09:09:47;;;;;;;23.52;15.57;;;;;;;;;;5071449;28;20813;-68
2023/07/28 09:12:13;;;;;;;21.90;14.93;;;;;;;;;;5069139;28;20039;-68
2023/07/28 09:14:38;;;;;;;21.30;15.55;;;;;;;;;;5067353;28;20021;-69
2023/07/28 09:17:08;;;;;;;16.67;13.60;;;;;;;;;;5058328;28;20392;-68
2023/07/28 09:19:33;;;;;;;22.92;14.43;;;;;;;;;;5050053;28;20075;-68
2023/07/28 09:21:59;;;;;;;23.83;14.85;;;;;;;;;;5049422;28;20033;-68
2023/07/28 09:24:31;;;;;;;24.50;13.45;;;;;;;;;;5052955;28;20083;-68
2023/07/28 09:26:56;;;;;;;20.00;15.07;;;;;;;;;;5057888;28;20056;-68
2023/07/28 09:29:21;;;;;;;18.33;12.13;;;;;;;;;;5070148;28;20429;-68
2023/07/28 09:31:48;;;;;;;21.60;15.48;;;;;;;;;;5069699;28;20036;-68
2023/07/28 09:34:22;;;;;;;19.50;13.73;;;;;;;;;;5070497;28;20020;-68
2023/07/28 09:36:48;;;;;;;15.23;13.65;;;;;;;;;;5068976;28;20052;-68
2023/07/28 09:39:14;;;;;;;18.85;12.75;;;;;;;;;;5070469;28;20028;-68
2023/07/28 09:41:39;;;;;;;22.08;13.50;;;;;;;;;;5038759;28;20044;-68
2023/07/28 09:44:05;;;;;;;14.40;11.60;;;;;;;;;;5057794;28;20017;-68
2023/07/28 09:46:32;;;;;;;22.98;14.20;;;;;;;;;;5068367;28;20118;-68
2023/07/28 09:48:59;;;;;;;18.73;13.45;;;;;;;;;;5071005;28;20012;-68
2023/07/28 09:51:29;;;;;;;18.60;12.07;;;;;;;;;;5049473;28;20411;-68
2023/07/28 09:54:04;;;;;;;16.27;11.68;;;;;;;;;;5065157;28;20546;-69
2023/07/28 09:56:30;;;;;;;14.27;11.10;;;;;;;;;;5069524;28;20052;-68
2023/07/28 09:58:56;;;;;;;13.07;10.40;;;;;;;;;;5069103;28;20020;-69
2023/07/28 10:01:21;;;;;;;13.85;11.55;;;;;;;;;;5069177;28;20123;-68
2023/07/28 10:03:47;;;;;;;13.80;11.27;;;;;;;;;;5070426;28;20017;-68
2023/07/28 10:06:12;;;;;;;15.85;12.27;;;;;;;;;;5067083;28;20044;-68
2023/07/28 10:08:39;;;;;;;18.55;12.07;;;;;;;;;;5069836;28;20501;-68
2023/07/28 10:11:04;;;;;;;14.45;11.35;;;;;;;;;;5068884;28;20016;-68
2023/07/28 10:13:38;;;;;;;14.43;11.68;;;;;;;;;;5069800;28;20020;-68
2023/07/28 10:16:04;;;;;;;17.40;12.68;;;;;;;;;;5068841;28;20070;-68
2023/07/28 10:18:29;;;;;;;13.97;10.03;;;;;;;;;;5070740;28;20372;-68
2023/07/28 10:20:54;;;;;;;18.60;13.03;;;;;;;;;;5068389;28;20016;-68
2023/07/28 10:23:22;;;;;;;13.90;11.60;;;;;;;;;;5069349;28;20023;-68
2023/07/28 10:25:55;;;;;;;12.50;10.90;;;;;;;;;;5070281;28;20024;-68
2023/07/28 10:28:31;;;;;;;14.27;11.27;;;;;;;;;;5066383;28;20174;-67
2023/07/28 10:30:56;;;;;;;14.55;11.70;;;;;;;;;;5068499;28;20386;-68
2023/07/28 10:33:36;;;;;;;22.67;15.30;;;;;;;;;;5070197;28;20008;-68
2023/07/28 10:36:15;;;;;;;22.73;14.52;;;;;;;;;;5068203;28;20130;-68
2023/07/28 10:38:41;;;;;;;14.18;12.38;;;;;;;;;;5070116;28;20483;-68
2023/07/28 10:41:09;;;;;;;15.27;12.70;;;;;;;;;;5066645;28;20020;-68
2023/07/28 10:43:34;;;;;;;25.27;14.27;;;;;;;;;;5069078;28;20078;-68
2023/07/28 10:46:00;;;;;;;21.50;16.58;;;;;;;;;;5068977;28;20103;-69
2023/07/28 10:48:25;;;;;;;23.13;14.93;;;;;;;;;;5064401;28;20519;-68
2023/07/28 10:50:50;;;;;;;22.07;13.97;;;;;;;;;;5048759;28;20025;-66
2023/07/28 10:53:15;;;;;;;20.05;14.27;;;;;;;;;;5065368;28;20115;-68
2023/07/28 10:55:40;;;;;;;19.73;13.43;;;;;;;;;;5070117;28;20013;-68
2023/07/28 10:58:06;;;;;;;17.97;11.67;;;;;;;;;;5069829;28;20502;-68
2023/07/28 11:00:31;;;;;;;14.80;12.23;;;;;;;;;;5074226;28;20023;-68
2023/07/28 11:02:57;;;;;;;18.15;12.40;;;;;;;;;;5059580;28;20444;-67
2023/07/28 11:05:27;;;;;;;17.80;11.15;;;;;;;;;;5052147;28;20121;-68
2023/07/28 11:07:54;;;;;;;14.98;10.15;;;;;;;;;;5052492;28;20036;-68
2023/07/28 11:10:20;;;;;;;12.05;10.65;;;;;;;;;;5053702;28;20036;-68
2023/07/28 11:12:46;;;;;;;11.18;9.40;;;;;;;;;;5062810;28;20041;-67
2023/07/28 11:15:13;;;;;;;12.85;11.18;;;;;;;;;;5073280;28;20476;-68
2023/07/28 11:17:41;;;;;;;13.77;9.93;;;;;;;;;;5072232;28;20116;-69
2023/07/28 11:20:19;;;;;;;20.10;11.40;;;;;;;;;;5071508;28;20103;-68
2023/07/28 11:22:45;;;;;;;15.00;11.48;;;;;;;;;;5052017;28;20044;-67
2023/07/28 11:25:11;;;;;;;13.90;11.00;;;;;;;;;;5053366;28;20021;-67
2023/07/28 11:27:37;;;;;;;11.43;9.98;;;;;;;;;;5052020;28;20033;-68
2023/07/28 11:30:05;;;;;;;15.85;11.13;;;;;;;;;;5058144;28;20495;-67
2023/07/28 11:32:30;;;;;;;;;;;;;;;;;;5064013;28;20526;-67
2023/07/28 11:34:55;;;;;;;14.00;8.80;;;;;;;;;;5052577;28;20338;-67
2023/07/28 11:37:20;;;;;;;12.70;8.50;;;;;;;;;;5051744;28;20060;-68
2023/07/28 11:39:46;;;;;;;8.17;7.47;;;;;;;;;;5051944;28;20025;-68
2023/07/28 11:42:11;;;;;;;7.65;6.85;;;;;;;;;;5042445;28;20033;-68
2023/07/28 11:44:36;;;;;;;9.97;7.97;;;;;;;;;;5049860;28;20021;-68
2023/07/28 11:47:04;;;;;;;9.07;8.02;;;;;;;;;;5051483;28;20029;-68
2023/07/28 11:49:29;;;;;;;9.55;8.40;;;;;;;;;;5051484;28;20025;-68
2023/07/28 11:51:55;;;;;;;12.77;8.30;;;;;;;;;;5060109;28;20115;-68
2023/07/28 11:54:24;;;;;;;17.05;9.68;;;;;;;;;;5071094;28;20020;-68
2023/07/28 11:56:50;;;;;;;11.52;9.77;;;;;;;;;;5070074;28;20045;-68
2023/07/28 11:59:16;;;;;;;10.38;9.23;;;;;;;;;;5072246;28;20023;-68
2023/07/28 12:02:00;;;;;;;12.15;9.32;;;;;;;;;;5071525;28;20395;-68
2023/07/28 12:04:30;;;;;;;7.15;6.53;;;;;;;;;;5071431;28;20063;-69
2023/07/28 12:07:08;;;;;;;15.45;8.30;;;;;;;;;;5062253;28;20036;-68
2023/07/28 12:09:48;;;;;;;9.27;7.93;;;;;;;;;;5051824;28;20530;-68
2023/07/28 12:12:14;;;;;;;10.35;8.52;;;;;;;;;;5060666;28;20036;-68
2023/07/28 12:14:39;;;;;;;9.07;7.65;;;;;;;;;;5072157;28;20028;-68
2023/07/28 12:17:12;;;;;;;12.75;7.97;;;;;;;;;;5061432;28;20557;-68
2023/07/28 12:19:40;;;;;;;11.77;8.05;;;;;;;;;;5054301;28;20043;-68
2023/07/28 12:22:05;;;;;;;13.32;7.45;;;;;;;;;;5051103;28;20029;-68
2023/07/28 12:24:30;;;;;;;7.57;6.65;;;;;;;;;;5058479;28;20379;-68
2023/07/28 12:26:56;;;;;;;8.95;8.15;;;;;;;;;;5056464;28;20033;-68
2023/07/28 12:29:21;;;;;;;9.18;8.23;;;;;;;;;;5070060;28;20025;-69
2023/07/28 12:31:46;;;;;;;12.70;8.47;;;;;;;;;;5067313;28;20466;-68
2023/07/28 12:34:11;;;;;;;10.37;8.63;;;;;;;;;;5062629;28;20020;-68
2023/07/28 12:36:36;;;;;;;15.83;10.57;;;;;;;;;;5058749;28;20459;-68
2023/07/28 12:39:03;;;;;;;12.20;10.30;;;;;;;;;;5054953;28;20017;-68
2023/07/28 12:41:28;;;;;;;22.08;12.52;;;;;;;;;;5070464;28;20538;-69
2023/07/28 12:43:53;;;;;;;10.83;9.73;;;;;;;;;;5072138;28;20104;-69
2023/07/28 12:46:18;;;;;;;10.48;9.40;;;;;;;;;;5060260;28;20624;-67
2023/07/28 12:48:43;;;;;;;9.40;8.50;;;;;;;;;;5070793;28;20039;-68
2023/07/28 12:51:09;;;;;;;14.00;8.13;;;;;;;;;;5069727;28;20016;-67
2023/07/28 12:53:34;;;;;;;9.93;8.90;;;;;;;;;;5056061;28;20020;-68
2023/07/28 12:55:59;;;;;;;9.65;8.60;;;;;;;;;;5052842;28;20999;-67
2023/07/28 12:58:25;;;;;;;10.83;9.73;;;;;;;;;;5071669;28;20016;-68
2023/07/28 13:00:50;;;;;;;10.50;9.40;;;;;;;;;;5070257;28;20066;-68
2023/07/28 13:03:16;;;;;;;11.52;8.93;;;;;;;;;;5053748;28;20124;-68
2023/07/28 13:05:43;;;;;;;12.55;6.63;;;;;;;;;;5052069;28;20056;-67
2023/07/28 13:08:08;;;;;;;9.95;7.70;;;;;;;;;;5051893;28;20045;-68
2023/07/28 13:10:33;;;;;;;8.30;6.97;;;;;;;;;;5054762;28;20020;-68
2023/07/28 13:12:58;;;;;;;8.20;7.40;;;;;;;;;;5051256;28;20451;-68
2023/07/28 13:15:24;;;;;;;8.48;7.60;;;;;;;;;;5051241;28;20466;-68
2023/07/28 13:17:49;;;;;;;10.27;8.25;;;;;;;;;;5066073;28;20048;-69
2023/07/28 13:20:14;;;;;;;8.37;7.57;;;;;;;;;;5066732;28;20070;-68
2023/07/28 13:22:39;;;;;;;9.83;8.83;;;;;;;;;;5061117;28;20036;-68
2023/07/28 13:25:04;;;;;;;9.90;8.90;;;;;;;;;;5070445;28;20048;-68
2023/07/28 13:27:30;;;;;;;9.95;7.53;;;;;;;;;;5068780;28;20049;-68
2023/07/28 13:29:55;;;;;;;11.30;8.57;;;;;;;;;;5070488;28;20397;-68
2023/07/28 13:32:24;;;;;;;11.27;9.53;;;;;;;;;;5068853;28;20125;-68
2023/07/28 13:34:50;;;;;;;10.73;9.07;;;;;;;;;;5070822;28;20040;-67
2023/07/28 13:37:15;;;;;;;10.15;9.13;;;;;;;;;;5068470;28;20514;-68
2023/07/28 13:39:41;;;;;;;7.50;6.80;;;;;;;;;;5070742;28;20040;-68
2023/07/28 13:42:06;;;;;;;10.48;8.23;;;;;;;;;;5068165;28;20533;-68
2023/07/28 13:44:31;;;;;;;7.77;6.70;;;;;;;;;;5070112;28;20059;-68
2023/07/28 13:46:57;;;;;;;5.93;5.43;;;;;;;;;;5068089;28;20060;-68
2023/07/28 13:49:22;;;;;;;5.47;4.90;;;;;;;;;;5070794;28;20060;-68
2023/07/28 13:51:47;;;;;;;8.77;5.77;;;;;;;;;;5069675;28;20123;-67
2023/07/28 13:54:12;;;;;;;5.67;5.17;;;;;;;;;;5070528;28;20464;-68
2023/07/28 13:56:37;;;;;;;5.77;4.37;;;;;;;;;;5061886;28;20060;-68
2023/07/28 13:59:02;;;;;;;6.33;4.70;;;;;;;;;;5069995;28;20442;-67
2023/07/28 14:01:28;;;;;;;5.23;4.73;;;;;;;;;;5068635;28;20451;-67
2023/07/28 14:03:53;;;;;;;6.50;5.03;;;;;;;;;;5069225;28;20108;-68
2023/07/28 14:06:18;;;;;;;5.82;4.75;;;;;;;;;;5067516;28;20478;-68
2023/07/28 14:08:44;;;;;;;4.18;3.88;;;;;;;;;;5069377;28;20028;-69
2023/07/28 14:11:10;;;;;;;7.25;5.32;;;;;;;;;;5068318;28;20070;-68
2023/07/28 14:13:35;;;;;;;6.10;5.50;;;;;;;;;;5069376;28;20375;-69